sensor_id;sensor_type;location;lat;lon;timestamp;temperature;humidity
9116;DHT22;4593;53.652;10.168;2023-07-13T00:00:19;17.00;94.60
9116;DHT22;4593;53.652;10.168;2023-07-13T00:02:45;16.90;95.00
9116;DHT22;4593;53.652;10.168;2023-07-13T00:05:10;16.80;95.10
9116;DHT22;4593;53.652;10.168;2023-07-13T00:07:36;16.70;95.20
9116;DHT22;4593;53.652;10.168;2023-07-13T00:10:03;16.60;95.30
9116;DHT22;4593;53.652;10.168;2023-07-13T00:12:34;16.50;95.50
9116;DHT22;4593;53.652;10.168;2023-07-13T00:15:04;16.30;95.80
9116;DHT22;4593;53.652;10.168;2023-07-13T00:17:31;16.30;95.90
9116;DHT22;4593;53.652;10.168;2023-07-13T00:19:57;16.20;96.00
9116;DHT22;4593;53.652;10.168;2023-07-13T00:22:24;16.10;96.00
9116;DHT22;4593;53.652;10.168;2023-07-13T00:24:52;16.00;96.00
9116;DHT22;4593;53.652;10.168;2023-07-13T00:27:18;15.90;96.20
9116;DHT22;4593;53.652;10.168;2023-07-13T00:29:43;15.90;96.40
9116;DHT22;4593;53.652;10.168;2023-07-13T00:32:10;15.80;96.40
9116;DHT22;4593;53.652;10.168;2023-07-13T00:34:39;15.80;96.50
9116;DHT22;4593;53.652;10.168;2023-07-13T00:37:06;15.70;96.80
9116;DHT22;4593;53.652;10.168;2023-07-13T00:39:33;15.70;96.70
9116;DHT22;4593;53.652;10.168;2023-07-13T00:42:00;15.60;96.70
9116;DHT22;4593;53.652;10.168;2023-07-13T00:44:26;15.60;96.90
9116;DHT22;4593;53.652;10.168;2023-07-13T00:46:52;15.50;96.90
9116;DHT22;4593;53.652;10.168;2023-07-13T00:49:20;15.50;96.80
9116;DHT22;4593;53.652;10.168;2023-07-13T00:52:03;15.40;96.90
9116;DHT22;4593;53.652;10.168;2023-07-13T00:54:39;15.40;96.90
9116;DHT22;4593;53.652;10.168;2023-07-13T00:57:08;15.30;97.10
9116;DHT22;4593;53.652;10.168;2023-07-13T00:59:35;15.30;97.10
9116;DHT22;4593;53.652;10.168;2023-07-13T01:02:03;15.20;97.20
9116;DHT22;4593;53.652;10.168;2023-07-13T01:04:29;15.20;97.20
9116;DHT22;4593;53.652;10.168;2023-07-13T01:06:56;15.20;97.10
9116;DHT22;4593;53.652;10.168;2023-07-13T01:09:22;15.10;97.40
9116;DHT22;4593;53.652;10.168;2023-07-13T01:11:48;15.10;97.30
9116;DHT22;4593;53.652;10.168;2023-07-13T01:14:14;15.00;97.30
9116;DHT22;4593;53.652;10.168;2023-07-13T01:16:42;15.00;97.30
9116;DHT22;4593;53.652;10.168;2023-07-13T01:21:50;15.00;97.70
9116;DHT22;4593;53.652;10.168;2023-07-13T01:24:16;15.00;97.60
9116;DHT22;4593;53.652;10.168;2023-07-13T01:26:42;15.00;97.50
9116;DHT22;4593;53.652;10.168;2023-07-13T01:29:08;14.90;97.60
9116;DHT22;4593;53.652;10.168;2023-07-13T01:31:34;14.90;97.70
9116;DHT22;4593;53.652;10.168;2023-07-13T01:34:00;14.90;97.70
9116;DHT22;4593;53.652;10.168;2023-07-13T01:36:26;14.90;97.90
9116;DHT22;4593;53.652;10.168;2023-07-13T01:38:51;14.90;97.70
9116;DHT22;4593;53.652;10.168;2023-07-13T01:41:17;14.90;98.00
9116;DHT22;4593;53.652;10.168;2023-07-13T01:43:43;14.90;98.10
9116;DHT22;4593;53.652;10.168;2023-07-13T01:46:09;14.80;98.10
9116;DHT22;4593;53.652;10.168;2023-07-13T01:48:34;14.80;98.20
9116;DHT22;4593;53.652;10.168;2023-07-13T01:51:00;14.80;98.40
9116;DHT22;4593;53.652;10.168;2023-07-13T01:53:25;14.80;98.40
9116;DHT22;4593;53.652;10.168;2023-07-13T01:55:52;14.80;98.40
9116;DHT22;4593;53.652;10.168;2023-07-13T01:58:18;14.80;98.70
9116;DHT22;4593;53.652;10.168;2023-07-13T02:00:43;14.80;98.80
9116;DHT22;4593;53.652;10.168;2023-07-13T02:03:10;14.80;98.50
9116;DHT22;4593;53.652;10.168;2023-07-13T02:05:37;14.80;98.60
9116;DHT22;4593;53.652;10.168;2023-07-13T02:08:03;14.80;98.60
9116;DHT22;4593;53.652;10.168;2023-07-13T02:10:28;14.80;98.70
9116;DHT22;4593;53.652;10.168;2023-07-13T02:12:54;14.80;98.80
9116;DHT22;4593;53.652;10.168;2023-07-13T02:15:20;14.70;99.00
9116;DHT22;4593;53.652;10.168;2023-07-13T02:17:46;14.70;99.20
9116;DHT22;4593;53.652;10.168;2023-07-13T02:20:12;14.70;99.10
9116;DHT22;4593;53.652;10.168;2023-07-13T02:22:37;14.70;99.20
9116;DHT22;4593;53.652;10.168;2023-07-13T02:25:03;14.70;99.10
9116;DHT22;4593;53.652;10.168;2023-07-13T02:27:29;14.70;99.30
9116;DHT22;4593;53.652;10.168;2023-07-13T02:29:54;14.70;99.10
9116;DHT22;4593;53.652;10.168;2023-07-13T02:32:20;14.70;99.40
9116;DHT22;4593;53.652;10.168;2023-07-13T02:34:46;14.70;99.30
9116;DHT22;4593;53.652;10.168;2023-07-13T02:37:12;14.70;99.30
9116;DHT22;4593;53.652;10.168;2023-07-13T02:39:38;14.70;99.30
9116;DHT22;4593;53.652;10.168;2023-07-13T02:42:03;14.70;99.20
9116;DHT22;4593;53.652;10.168;2023-07-13T02:44:29;14.60;99.30
9116;DHT22;4593;53.652;10.168;2023-07-13T02:46:55;14.60;99.60
9116;DHT22;4593;53.652;10.168;2023-07-13T02:49:21;14.60;99.70
9116;DHT22;4593;53.652;10.168;2023-07-13T02:51:46;14.60;99.70
9116;DHT22;4593;53.652;10.168;2023-07-13T02:54:12;14.60;99.80
9116;DHT22;4593;53.652;10.168;2023-07-13T02:56:39;14.60;100.00
9116;DHT22;4593;53.652;10.168;2023-07-13T02:59:05;14.60;99.90
9116;DHT22;4593;53.652;10.168;2023-07-13T03:01:31;14.50;100.00
9116;DHT22;4593;53.652;10.168;2023-07-13T03:03:58;14.60;99.80
9116;DHT22;4593;53.652;10.168;2023-07-13T03:06:23;14.60;100.00
9116;DHT22;4593;53.652;10.168;2023-07-13T03:08:50;14.60;100.00
9116;DHT22;4593;53.652;10.168;2023-07-13T03:11:18;14.60;100.00
9116;DHT22;4593;53.652;10.168;2023-07-13T03:13:44;14.60;100.00
9116;DHT22;4593;53.652;10.168;2023-07-13T03:16:11;14.60;100.00
9116;DHT22;4593;53.652;10.168;2023-07-13T03:18:37;14.60;100.00
9116;DHT22;4593;53.652;10.168;2023-07-13T03:21:03;14.60;100.00
9116;DHT22;4593;53.652;10.168;2023-07-13T03:23:29;14.60;100.00
9116;DHT22;4593;53.652;10.168;2023-07-13T03:26:21;14.60;100.00
9116;DHT22;4593;53.652;10.168;2023-07-13T03:28:47;14.60;100.00
9116;DHT22;4593;53.652;10.168;2023-07-13T03:31:16;14.70;100.00
9116;DHT22;4593;53.652;10.168;2023-07-13T03:33:43;14.70;100.00
9116;DHT22;4593;53.652;10.168;2023-07-13T03:36:13;14.70;100.00
9116;DHT22;4593;53.652;10.168;2023-07-13T03:38:39;14.70;100.00
9116;DHT22;4593;53.652;10.168;2023-07-13T03:41:04;14.80;100.00
9116;DHT22;4593;53.652;10.168;2023-07-13T03:43:30;14.80;100.00
9116;DHT22;4593;53.652;10.168;2023-07-13T03:45:56;14.80;99.90
9116;DHT22;4593;53.652;10.168;2023-07-13T03:48:21;14.80;100.00
9116;DHT22;4593;53.652;10.168;2023-07-13T03:50:47;14.80;100.00
9116;DHT22;4593;53.652;10.168;2023-07-13T03:53:15;14.80;99.90
9116;DHT22;4593;53.652;10.168;2023-07-13T03:55:40;14.80;99.90
9116;DHT22;4593;53.652;10.168;2023-07-13T03:58:26;14.80;99.90
9116;DHT22;4593;53.652;10.168;2023-07-13T04:00:54;14.80;100.00
9116;DHT22;4593;53.652;10.168;2023-07-13T04:03:19;14.80;100.00
9116;DHT22;4593;53.652;10.168;2023-07-13T04:05:45;14.80;100.00
9116;DHT22;4593;53.652;10.168;2023-07-13T04:08:11;14.80;99.80
9116;DHT22;4593;53.652;10.168;2023-07-13T04:10:37;14.90;100.00
9116;DHT22;4593;53.652;10.168;2023-07-13T04:13:04;14.90;99.80
9116;DHT22;4593;53.652;10.168;2023-07-13T04:15:31;14.90;99.90
9116;DHT22;4593;53.652;10.168;2023-07-13T04:17:57;15.00;99.90
9116;DHT22;4593;53.652;10.168;2023-07-13T04:20:24;15.10;99.80
9116;DHT22;4593;53.652;10.168;2023-07-13T04:22:49;15.20;99.30
9116;DHT22;4593;53.652;10.168;2023-07-13T04:25:15;15.20;99.30
9116;DHT22;4593;53.652;10.168;2023-07-13T04:27:41;15.30;99.40
9116;DHT22;4593;53.652;10.168;2023-07-13T04:30:07;15.40;99.20
9116;DHT22;4593;53.652;10.168;2023-07-13T04:32:34;15.50;98.80
9116;DHT22;4593;53.652;10.168;2023-07-13T04:34:59;15.50;98.50
9116;DHT22;4593;53.652;10.168;2023-07-13T04:37:26;15.40;98.60
9116;DHT22;4593;53.652;10.168;2023-07-13T04:39:54;15.40;98.70
9116;DHT22;4593;53.652;10.168;2023-07-13T04:42:20;15.40;98.90
9116;DHT22;4593;53.652;10.168;2023-07-13T04:44:50;15.40;99.00
9116;DHT22;4593;53.652;10.168;2023-07-13T04:47:15;15.40;98.90
9116;DHT22;4593;53.652;10.168;2023-07-13T04:49:41;15.40;99.00
9116;DHT22;4593;53.652;10.168;2023-07-13T04:52:07;15.50;98.50
9116;DHT22;4593;53.652;10.168;2023-07-13T04:54:33;15.60;98.50
9116;DHT22;4593;53.652;10.168;2023-07-13T04:56:59;15.70;97.60
9116;DHT22;4593;53.652;10.168;2023-07-13T04:59:25;15.80;97.70
9116;DHT22;4593;53.652;10.168;2023-07-13T05:01:51;16.00;97.50
9116;DHT22;4593;53.652;10.168;2023-07-13T05:04:17;16.10;97.10
9116;DHT22;4593;53.652;10.168;2023-07-13T05:06:42;16.30;96.60
9116;DHT22;4593;53.652;10.168;2023-07-13T05:09:08;16.50;95.90
9116;DHT22;4593;53.652;10.168;2023-07-13T05:11:34;16.70;95.30
9116;DHT22;4593;53.652;10.168;2023-07-13T05:14:00;16.90;94.50
9116;DHT22;4593;53.652;10.168;2023-07-13T05:16:27;17.00;94.20
9116;DHT22;4593;53.652;10.168;2023-07-13T05:18:53;17.00;93.80
9116;DHT22;4593;53.652;10.168;2023-07-13T05:21:19;17.10;94.00
9116;DHT22;4593;53.652;10.168;2023-07-13T05:23:45;17.10;94.20
9116;DHT22;4593;53.652;10.168;2023-07-13T05:26:11;17.20;94.00
9116;DHT22;4593;53.652;10.168;2023-07-13T05:28:37;17.30;94.20
9116;DHT22;4593;53.652;10.168;2023-07-13T05:31:03;17.30;94.30
9116;DHT22;4593;53.652;10.168;2023-07-13T05:33:29;17.50;94.20
9116;DHT22;4593;53.652;10.168;2023-07-13T05:35:55;17.70;93.80
9116;DHT22;4593;53.652;10.168;2023-07-13T05:38:21;17.90;93.20
9116;DHT22;4593;53.652;10.168;2023-07-13T05:40:47;18.10;92.90
9116;DHT22;4593;53.652;10.168;2023-07-13T05:43:13;18.40;93.20
9116;DHT22;4593;53.652;10.168;2023-07-13T05:45:39;18.80;92.30
9116;DHT22;4593;53.652;10.168;2023-07-13T05:48:05;19.10;90.30
9116;DHT22;4593;53.652;10.168;2023-07-13T05:50:31;19.40;90.20
9116;DHT22;4593;53.652;10.168;2023-07-13T05:52:57;19.70;88.40
9116;DHT22;4593;53.652;10.168;2023-07-13T05:55:22;19.70;87.80
9116;DHT22;4593;53.652;10.168;2023-07-13T05:57:48;19.60;87.10
9116;DHT22;4593;53.652;10.168;2023-07-13T06:00:15;19.60;87.40
9116;DHT22;4593;53.652;10.168;2023-07-13T06:02:40;19.50;86.20
9116;DHT22;4593;53.652;10.168;2023-07-13T06:05:06;19.50;86.10
9116;DHT22;4593;53.652;10.168;2023-07-13T06:07:32;19.50;86.80
9116;DHT22;4593;53.652;10.168;2023-07-13T06:09:58;19.60;85.70
9116;DHT22;4593;53.652;10.168;2023-07-13T06:12:25;19.70;85.10
9116;DHT22;4593;53.652;10.168;2023-07-13T06:14:51;19.70;85.20
9116;DHT22;4593;53.652;10.168;2023-07-13T06:17:17;19.80;84.00
9116;DHT22;4593;53.652;10.168;2023-07-13T06:19:43;19.90;84.40
9116;DHT22;4593;53.652;10.168;2023-07-13T06:22:10;19.90;82.90
9116;DHT22;4593;53.652;10.168;2023-07-13T06:24:36;19.90;82.70
9116;DHT22;4593;53.652;10.168;2023-07-13T06:27:01;19.90;81.50
9116;DHT22;4593;53.652;10.168;2023-07-13T06:29:27;19.70;81.10
9116;DHT22;4593;53.652;10.168;2023-07-13T06:31:52;19.80;81.30
9116;DHT22;4593;53.652;10.168;2023-07-13T06:34:18;19.80;80.60
9116;DHT22;4593;53.652;10.168;2023-07-13T06:36:44;19.70;82.10
9116;DHT22;4593;53.652;10.168;2023-07-13T06:39:10;20.00;82.30
9116;DHT22;4593;53.652;10.168;2023-07-13T06:41:35;20.20;81.00
9116;DHT22;4593;53.652;10.168;2023-07-13T06:44:01;20.30;80.30
9116;DHT22;4593;53.652;10.168;2023-07-13T06:46:28;20.40;79.60
9116;DHT22;4593;53.652;10.168;2023-07-13T06:48:55;20.50;78.60
9116;DHT22;4593;53.652;10.168;2023-07-13T06:51:21;20.60;77.90
9116;DHT22;4593;53.652;10.168;2023-07-13T06:53:46;20.70;77.20
9116;DHT22;4593;53.652;10.168;2023-07-13T06:56:12;20.80;76.80
9116;DHT22;4593;53.652;10.168;2023-07-13T06:58:38;20.90;76.60
9116;DHT22;4593;53.652;10.168;2023-07-13T07:01:05;21.00;75.70
9116;DHT22;4593;53.652;10.168;2023-07-13T07:03:30;21.10;74.70
9116;DHT22;4593;53.652;10.168;2023-07-13T07:06:19;21.30;74.70
9116;DHT22;4593;53.652;10.168;2023-07-13T07:08:45;21.40;73.60
9116;DHT22;4593;53.652;10.168;2023-07-13T07:11:13;21.50;74.30
9116;DHT22;4593;53.652;10.168;2023-07-13T07:13:39;21.70;73.80
9116;DHT22;4593;53.652;10.168;2023-07-13T07:16:05;21.90;73.30
9116;DHT22;4593;53.652;10.168;2023-07-13T07:18:31;21.80;70.50
9116;DHT22;4593;53.652;10.168;2023-07-13T07:20:56;21.60;70.10
9116;DHT22;4593;53.652;10.168;2023-07-13T07:23:22;21.70;71.40
9116;DHT22;4593;53.652;10.168;2023-07-13T07:25:48;21.70;72.50
9116;DHT22;4593;53.652;10.168;2023-07-13T07:28:16;21.90;71.70
9116;DHT22;4593;53.652;10.168;2023-07-13T07:30:48;22.00;72.20
9116;DHT22;4593;53.652;10.168;2023-07-13T07:33:15;21.90;72.00
9116;DHT22;4593;53.652;10.168;2023-07-13T07:35:42;22.20;71.50
9116;DHT22;4593;53.652;10.168;2023-07-13T07:38:08;22.40;69.00
9116;DHT22;4593;53.652;10.168;2023-07-13T07:40:38;22.10;72.10
9116;DHT22;4593;53.652;10.168;2023-07-13T07:43:05;22.20;73.30
9116;DHT22;4593;53.652;10.168;2023-07-13T07:45:30;22.30;70.70
9116;DHT22;4593;53.652;10.168;2023-07-13T07:47:56;22.60;68.70
9116;DHT22;4593;53.652;10.168;2023-07-13T07:50:28;22.60;69.10
9116;DHT22;4593;53.652;10.168;2023-07-13T07:52:54;23.00;71.30
9116;DHT22;4593;53.652;10.168;2023-07-13T07:55:22;23.20;68.40
9116;DHT22;4593;53.652;10.168;2023-07-13T07:57:48;23.40;67.80
9116;DHT22;4593;53.652;10.168;2023-07-13T08:00:14;23.50;66.50
9116;DHT22;4593;53.652;10.168;2023-07-13T08:02:40;23.50;66.70
9116;DHT22;4593;53.652;10.168;2023-07-13T08:05:07;23.40;65.00
9116;DHT22;4593;53.652;10.168;2023-07-13T08:07:33;23.20;63.50
9116;DHT22;4593;53.652;10.168;2023-07-13T08:09:59;23.10;67.20
9116;DHT22;4593;53.652;10.168;2023-07-13T08:12:25;22.70;67.10
9116;DHT22;4593;53.652;10.168;2023-07-13T08:14:51;22.20;67.60
9116;DHT22;4593;53.652;10.168;2023-07-13T08:17:23;22.10;70.20
9116;DHT22;4593;53.652;10.168;2023-07-13T08:19:49;22.40;68.10
9116;DHT22;4593;53.652;10.168;2023-07-13T08:22:14;22.60;66.70
9116;DHT22;4593;53.652;10.168;2023-07-13T08:24:40;23.00;68.30
9116;DHT22;4593;53.652;10.168;2023-07-13T08:27:08;23.20;70.00
9116;DHT22;4593;53.652;10.168;2023-07-13T08:29:33;23.70;68.80
9116;DHT22;4593;53.652;10.168;2023-07-13T08:31:59;24.20;67.10
9116;DHT22;4593;53.652;10.168;2023-07-13T08:34:25;24.40;63.50
9116;DHT22;4593;53.652;10.168;2023-07-13T08:36:51;24.50;63.50
9116;DHT22;4593;53.652;10.168;2023-07-13T08:39:16;24.50;63.00
9116;DHT22;4593;53.652;10.168;2023-07-13T08:41:46;24.30;61.00
9116;DHT22;4593;53.652;10.168;2023-07-13T08:44:25;24.20;60.60
9116;DHT22;4593;53.652;10.168;2023-07-13T08:46:53;24.60;62.60
9116;DHT22;4593;53.652;10.168;2023-07-13T08:49:22;25.20;58.20
9116;DHT22;4593;53.652;10.168;2023-07-13T08:52:09;25.50;59.30
9116;DHT22;4593;53.652;10.168;2023-07-13T08:54:39;25.50;58.30
9116;DHT22;4593;53.652;10.168;2023-07-13T08:57:19;24.90;57.80
9116;DHT22;4593;53.652;10.168;2023-07-13T08:59:46;24.30;60.80
9116;DHT22;4593;53.652;10.168;2023-07-13T09:03:06;23.90;60.10
9116;DHT22;4593;53.652;10.168;2023-07-13T09:05:18;23.80;61.60
9116;DHT22;4593;53.652;10.168;2023-07-13T09:10:52;23.80;64.20
9116;DHT22;4593;53.652;10.168;2023-07-13T09:13:38;23.90;63.60
9116;DHT22;4593;53.652;10.168;2023-07-13T09:16:05;23.90;61.20
9116;DHT22;4593;53.652;10.168;2023-07-13T09:18:38;23.80;62.50
9116;DHT22;4593;53.652;10.168;2023-07-13T09:21:42;24.30;64.90
9116;DHT22;4593;53.652;10.168;2023-07-13T09:26:58;24.60;57.40
9116;DHT22;4593;53.652;10.168;2023-07-13T09:29:30;24.40;58.20
9116;DHT22;4593;53.652;10.168;2023-07-13T09:32:02;24.20;57.80
9116;DHT22;4593;53.652;10.168;2023-07-13T09:34:30;24.10;59.50
9116;DHT22;4593;53.652;10.168;2023-07-13T09:36:56;24.20;60.00
9116;DHT22;4593;53.652;10.168;2023-07-13T09:39:29;24.10;59.70
9116;DHT22;4593;53.652;10.168;2023-07-13T09:42:16;23.90;61.00
9116;DHT22;4593;53.652;10.168;2023-07-13T09:44:52;24.00;61.70
9116;DHT22;4593;53.652;10.168;2023-07-13T09:47:24;24.20;62.50
9116;DHT22;4593;53.652;10.168;2023-07-13T09:50:00;24.50;57.90
9116;DHT22;4593;53.652;10.168;2023-07-13T09:52:27;24.80;58.60
9116;DHT22;4593;53.652;10.168;2023-07-13T09:54:54;25.20;56.70
9116;DHT22;4593;53.652;10.168;2023-07-13T09:57:26;25.40;56.10
9116;DHT22;4593;53.652;10.168;2023-07-13T09:59:53;25.80;55.40
9116;DHT22;4593;53.652;10.168;2023-07-13T10:02:35;25.90;57.60
9116;DHT22;4593;53.652;10.168;2023-07-13T10:05:06;26.10;53.20
9116;DHT22;4593;53.652;10.168;2023-07-13T10:07:38;26.30;53.90
9116;DHT22;4593;53.652;10.168;2023-07-13T10:10:18;26.30;52.00
9116;DHT22;4593;53.652;10.168;2023-07-13T10:12:46;26.50;53.70
9116;DHT22;4593;53.652;10.168;2023-07-13T10:15:21;26.70;51.30
9116;DHT22;4593;53.652;10.168;2023-07-13T10:17:48;26.60;51.40
9116;DHT22;4593;53.652;10.168;2023-07-13T10:20:27;26.60;50.50
9116;DHT22;4593;53.652;10.168;2023-07-13T10:25:26;26.10;54.00
9116;DHT22;4593;53.652;10.168;2023-07-13T10:27:58;25.90;52.00
9116;DHT22;4593;53.652;10.168;2023-07-13T10:30:32;25.90;52.60
9116;DHT22;4593;53.652;10.168;2023-07-13T10:33:02;25.70;53.50
9116;DHT22;4593;53.652;10.168;2023-07-13T10:35:29;25.50;53.10
9116;DHT22;4593;53.652;10.168;2023-07-13T10:38:06;25.40;56.00
9116;DHT22;4593;53.652;10.168;2023-07-13T10:43:06;25.50;53.60
9116;DHT22;4593;53.652;10.168;2023-07-13T10:45:35;25.60;53.50
9116;DHT22;4593;53.652;10.168;2023-07-13T10:48:01;25.80;51.70
9116;DHT22;4593;53.652;10.168;2023-07-13T10:50:29;26.10;52.50
9116;DHT22;4593;53.652;10.168;2023-07-13T10:53:02;26.40;50.60
9116;DHT22;4593;53.652;10.168;2023-07-13T10:55:56;26.40;50.70
9116;DHT22;4593;53.652;10.168;2023-07-13T10:58:38;26.00;50.00
9116;DHT22;4593;53.652;10.168;2023-07-13T11:01:14;25.90;51.10
9116;DHT22;4593;53.652;10.168;2023-07-13T11:06:28;26.10;52.20
9116;DHT22;4593;53.652;10.168;2023-07-13T11:08:57;25.80;48.50
9116;DHT22;4593;53.652;10.168;2023-07-13T11:11:36;25.70;49.50
9116;DHT22;4593;53.652;10.168;2023-07-13T11:14:13;25.50;49.70
9116;DHT22;4593;53.652;10.168;2023-07-13T11:16:50;25.70;51.80
9116;DHT22;4593;53.652;10.168;2023-07-13T11:22:02;26.60;49.80
9116;DHT22;4593;53.652;10.168;2023-07-13T11:24:47;26.90;47.90
9116;DHT22;4593;53.652;10.168;2023-07-13T11:30:24;26.70;47.50
9116;DHT22;4593;53.652;10.168;2023-07-13T11:35:35;26.30;47.30
9116;DHT22;4593;53.652;10.168;2023-07-13T11:38:03;25.70;48.60
9116;DHT22;4593;53.652;10.168;2023-07-13T11:40:37;25.20;49.00
9116;DHT22;4593;53.652;10.168;2023-07-13T11:43:06;25.40;49.00
9116;DHT22;4593;53.652;10.168;2023-07-13T11:45:33;25.10;49.10
9116;DHT22;4593;53.652;10.168;2023-07-13T11:47:58;25.20;49.00
9116;DHT22;4593;53.652;10.168;2023-07-13T11:50:27;24.60;51.40
9116;DHT22;4593;53.652;10.168;2023-07-13T11:52:54;23.80;54.40
9116;DHT22;4593;53.652;10.168;2023-07-13T11:55:23;23.40;56.10
9116;DHT22;4593;53.652;10.168;2023-07-13T11:57:57;23.10;57.10
9116;DHT22;4593;53.652;10.168;2023-07-13T12:00:28;23.10;57.50
9116;DHT22;4593;53.652;10.168;2023-07-13T12:02:56;22.80;58.10
9116;DHT22;4593;53.652;10.168;2023-07-13T12:05:22;22.40;58.30
9116;DHT22;4593;53.652;10.168;2023-07-13T12:07:49;22.20;59.40
9116;DHT22;4593;53.652;10.168;2023-07-13T12:10:25;22.20;59.00
9116;DHT22;4593;53.652;10.168;2023-07-13T12:13:00;22.40;58.60
9116;DHT22;4593;53.652;10.168;2023-07-13T12:15:42;22.40;56.60
9116;DHT22;4593;53.652;10.168;2023-07-13T12:18:15;22.40;55.10
9116;DHT22;4593;53.652;10.168;2023-07-13T12:20:41;22.50;56.90
9116;DHT22;4593;53.652;10.168;2023-07-13T12:23:29;22.40;57.70
9116;DHT22;4593;53.652;10.168;2023-07-13T12:25:56;21.50;60.50
9116;DHT22;4593;53.652;10.168;2023-07-13T12:28:31;20.90;62.70
9116;DHT22;4593;53.652;10.168;2023-07-13T12:31:02;20.00;65.00
9116;DHT22;4593;53.652;10.168;2023-07-13T12:33:29;19.20;71.60
9116;DHT22;4593;53.652;10.168;2023-07-13T12:35:55;17.80;82.10
9116;DHT22;4593;53.652;10.168;2023-07-13T12:38:21;17.10;85.90
9116;DHT22;4593;53.652;10.168;2023-07-13T12:40:50;16.80;91.20
9116;DHT22;4593;53.652;10.168;2023-07-13T12:43:16;16.50;92.70
9116;DHT22;4593;53.652;10.168;2023-07-13T12:46:03;16.50;94.10
9116;DHT22;4593;53.652;10.168;2023-07-13T12:48:29;16.50;94.80
9116;DHT22;4593;53.652;10.168;2023-07-13T12:50:55;16.40;95.00
9116;DHT22;4593;53.652;10.168;2023-07-13T12:53:23;16.50;95.10
9116;DHT22;4593;53.652;10.168;2023-07-13T12:55:56;16.80;96.70
9116;DHT22;4593;53.652;10.168;2023-07-13T12:58:41;17.20;97.00
9116;DHT22;4593;53.652;10.168;2023-07-13T13:01:10;17.70;96.50
9116;DHT22;4593;53.652;10.168;2023-07-13T13:03:46;18.10;93.80
9116;DHT22;4593;53.652;10.168;2023-07-13T13:08:46;19.00;93.10
9116;DHT22;4593;53.652;10.168;2023-07-13T13:11:14;19.40;90.70
9116;DHT22;4593;53.652;10.168;2023-07-13T13:13:42;19.80;89.60
9116;DHT22;4593;53.652;10.168;2023-07-13T13:16:31;20.20;88.90
9116;DHT22;4593;53.652;10.168;2023-07-13T13:19:01;20.60;87.70
9116;DHT22;4593;53.652;10.168;2023-07-13T13:21:29;20.50;85.90
9116;DHT22;4593;53.652;10.168;2023-07-13T13:23:54;20.60;85.90
9116;DHT22;4593;53.652;10.168;2023-07-13T13:26:22;20.90;86.50
9116;DHT22;4593;53.652;10.168;2023-07-13T13:28:48;21.10;85.90
9116;DHT22;4593;53.652;10.168;2023-07-13T13:31:14;21.40;85.00
9116;DHT22;4593;53.652;10.168;2023-07-13T13:33:45;21.40;84.30
9116;DHT22;4593;53.652;10.168;2023-07-13T13:36:18;21.40;84.20
9116;DHT22;4593;53.652;10.168;2023-07-13T13:38:44;21.70;84.80
9116;DHT22;4593;53.652;10.168;2023-07-13T13:41:12;21.80;83.80
9116;DHT22;4593;53.652;10.168;2023-07-13T13:43:39;21.90;82.70
9116;DHT22;4593;53.652;10.168;2023-07-13T13:46:15;22.10;83.70
9116;DHT22;4593;53.652;10.168;2023-07-13T13:48:41;22.30;83.00
9116;DHT22;4593;53.652;10.168;2023-07-13T13:51:16;22.30;80.20
9116;DHT22;4593;53.652;10.168;2023-07-13T13:53:43;22.30;80.20
9116;DHT22;4593;53.652;10.168;2023-07-13T13:56:09;22.10;80.00
9116;DHT22;4593;53.652;10.168;2023-07-13T13:58:35;22.00;79.20
9116;DHT22;4593;53.652;10.168;2023-07-13T14:01:00;21.80;80.60
9116;DHT22;4593;53.652;10.168;2023-07-13T14:03:26;21.80;80.20
9116;DHT22;4593;53.652;10.168;2023-07-13T14:05:53;21.80;80.20
9116;DHT22;4593;53.652;10.168;2023-07-13T14:08:20;21.80;78.80
9116;DHT22;4593;53.652;10.168;2023-07-13T14:10:49;21.80;77.50
9116;DHT22;4593;53.652;10.168;2023-07-13T14:13:37;21.80;78.40
9116;DHT22;4593;53.652;10.168;2023-07-13T14:16:14;21.80;77.70
9116;DHT22;4593;53.652;10.168;2023-07-13T14:18:40;21.90;78.10
9116;DHT22;4593;53.652;10.168;2023-07-13T14:21:18;22.00;79.20
9116;DHT22;4593;53.652;10.168;2023-07-13T14:23:45;22.10;79.50
9116;DHT22;4593;53.652;10.168;2023-07-13T14:26:35;22.40;78.70
9116;DHT22;4593;53.652;10.168;2023-07-13T14:28:58;22.60;76.80
9116;DHT22;4593;53.652;10.168;2023-07-13T14:31:27;22.70;77.30
9116;DHT22;4593;53.652;10.168;2023-07-13T14:33:56;22.60;76.90
9116;DHT22;4593;53.652;10.168;2023-07-13T14:38:51;22.40;75.70
9116;DHT22;4593;53.652;10.168;2023-07-13T14:41:16;22.30;76.00
9116;DHT22;4593;53.652;10.168;2023-07-13T14:43:42;22.30;75.60
9116;DHT22;4593;53.652;10.168;2023-07-13T14:46:20;22.20;75.60
9116;DHT22;4593;53.652;10.168;2023-07-13T14:48:48;22.10;75.20
9116;DHT22;4593;53.652;10.168;2023-07-13T14:51:15;21.90;75.20
9116;DHT22;4593;53.652;10.168;2023-07-13T14:53:40;21.90;73.70
9116;DHT22;4593;53.652;10.168;2023-07-13T14:56:11;21.80;73.00
9116;DHT22;4593;53.652;10.168;2023-07-13T14:58:37;21.50;73.80
9116;DHT22;4593;53.652;10.168;2023-07-13T15:01:14;21.40;73.40
9116;DHT22;4593;53.652;10.168;2023-07-13T15:03:45;21.30;74.80
9116;DHT22;4593;53.652;10.168;2023-07-13T15:06:12;21.50;75.10
9116;DHT22;4593;53.652;10.168;2023-07-13T15:08:38;21.70;75.00
9116;DHT22;4593;53.652;10.168;2023-07-13T15:11:09;21.80;75.10
9116;DHT22;4593;53.652;10.168;2023-07-13T15:13:39;21.70;72.70
9116;DHT22;4593;53.652;10.168;2023-07-13T15:16:21;21.70;72.50
9116;DHT22;4593;53.652;10.168;2023-07-13T15:18:47;21.70;72.40
9116;DHT22;4593;53.652;10.168;2023-07-13T15:21:19;21.70;73.90
9116;DHT22;4593;53.652;10.168;2023-07-13T15:23:45;21.70;71.60
9116;DHT22;4593;53.652;10.168;2023-07-13T15:26:13;21.70;71.10
9116;DHT22;4593;53.652;10.168;2023-07-13T15:28:43;21.70;71.10
9116;DHT22;4593;53.652;10.168;2023-07-13T15:33:43;21.30;71.80
9116;DHT22;4593;53.652;10.168;2023-07-13T15:36:09;21.10;71.00
9116;DHT22;4593;53.652;10.168;2023-07-13T15:38:36;20.90;70.40
9116;DHT22;4593;53.652;10.168;2023-07-13T15:41:31;20.70;70.20
9116;DHT22;4593;53.652;10.168;2023-07-13T15:43:58;20.60;69.70
9116;DHT22;4593;53.652;10.168;2023-07-13T15:46:26;20.70;72.10
9116;DHT22;4593;53.652;10.168;2023-07-13T15:48:53;21.10;73.50
9116;DHT22;4593;53.652;10.168;2023-07-13T15:51:27;21.60;74.30
9116;DHT22;4593;53.652;10.168;2023-07-13T15:53:59;22.10;71.50
9116;DHT22;4593;53.652;10.168;2023-07-13T15:56:27;22.30;69.50
9116;DHT22;4593;53.652;10.168;2023-07-13T15:58:54;22.40;67.20
9116;DHT22;4593;53.652;10.168;2023-07-13T16:01:22;22.40;67.70
9116;DHT22;4593;53.652;10.168;2023-07-13T16:03:48;22.40;66.90
9116;DHT22;4593;53.652;10.168;2023-07-13T16:06:24;22.20;65.00
9116;DHT22;4593;53.652;10.168;2023-07-13T16:08:51;21.90;65.30
9116;DHT22;4593;53.652;10.168;2023-07-13T16:11:24;21.70;66.60
9116;DHT22;4593;53.652;10.168;2023-07-13T16:13:50;21.70;67.30
9116;DHT22;4593;53.652;10.168;2023-07-13T16:16:21;21.70;66.50
9116;DHT22;4593;53.652;10.168;2023-07-13T16:18:54;21.60;67.50
9116;DHT22;4593;53.652;10.168;2023-07-13T16:21:22;21.70;65.50
9116;DHT22;4593;53.652;10.168;2023-07-13T16:23:49;21.90;65.70
9116;DHT22;4593;53.652;10.168;2023-07-13T16:26:26;21.90;63.90